sensor_id;sensor_type;location;lat;lon;timestamp;temperature;humidity
27795;DHT22;15176;50.844;4.412;2023-04-24T00:00:11;10.50;99.90
27795;DHT22;15176;50.844;4.412;2023-04-24T00:02:40;10.70;99.90
27795;DHT22;15176;50.844;4.412;2023-04-24T00:05:07;10.70;99.90
27795;DHT22;15176;50.844;4.412;2023-04-24T00:07:33;10.60;99.90
27795;DHT22;15176;50.844;4.412;2023-04-24T00:09:59;10.50;99.90
27795;DHT22;15176;50.844;4.412;2023-04-24T00:12:25;10.70;99.90
27795;DHT22;15176;50.844;4.412;2023-04-24T00:14:52;10.50;99.90
27795;DHT22;15176;50.844;4.412;2023-04-24T00:17:18;10.60;99.90
27795;DHT22;15176;50.844;4.412;2023-04-24T00:19:47;10.60;99.90
27795;DHT22;15176;50.844;4.412;2023-04-24T00:22:13;10.50;99.90
27795;DHT22;15176;50.844;4.412;2023-04-24T00:24:40;10.70;99.90
27795;DHT22;15176;50.844;4.412;2023-04-24T00:27:05;10.70;99.90
27795;DHT22;15176;50.844;4.412;2023-04-24T00:29:31;10.70;99.90
27795;DHT22;15176;50.844;4.412;2023-04-24T00:31:57;10.60;99.90
27795;DHT22;15176;50.844;4.412;2023-04-24T00:34:23;10.60;99.90
27795;DHT22;15176;50.844;4.412;2023-04-24T00:36:49;10.40;99.90
27795;DHT22;15176;50.844;4.412;2023-04-24T00:39:19;10.50;99.90
27795;DHT22;15176;50.844;4.412;2023-04-24T00:41:45;10.30;99.90
27795;DHT22;15176;50.844;4.412;2023-04-24T00:44:11;10.20;99.90
27795;DHT22;15176;50.844;4.412;2023-04-24T00:46:38;10.20;99.90
27795;DHT22;15176;50.844;4.412;2023-04-24T00:49:05;10.20;99.90
27795;DHT22;15176;50.844;4.412;2023-04-24T00:51:31;10.20;99.90
27795;DHT22;15176;50.844;4.412;2023-04-24T00:53:59;10.30;99.90
27795;DHT22;15176;50.844;4.412;2023-04-24T00:56:26;10.20;99.90
27795;DHT22;15176;50.844;4.412;2023-04-24T00:58:52;10.20;99.90
27795;DHT22;15176;50.844;4.412;2023-04-24T01:01:21;10.40;99.90
27795;DHT22;15176;50.844;4.412;2023-04-24T01:03:49;10.60;99.90
27795;DHT22;15176;50.844;4.412;2023-04-24T01:06:16;10.50;99.90
27795;DHT22;15176;50.844;4.412;2023-04-24T01:08:43;10.40;99.90
27795;DHT22;15176;50.844;4.412;2023-04-24T01:11:11;10.50;99.90
27795;DHT22;15176;50.844;4.412;2023-04-24T01:13:37;10.50;99.90
27795;DHT22;15176;50.844;4.412;2023-04-24T01:16:03;10.40;99.90
27795;DHT22;15176;50.844;4.412;2023-04-24T01:18:28;10.50;99.90
27795;DHT22;15176;50.844;4.412;2023-04-24T01:20:57;10.60;99.90
27795;DHT22;15176;50.844;4.412;2023-04-24T01:23:24;10.60;99.90
27795;DHT22;15176;50.844;4.412;2023-04-24T01:25:50;10.40;99.90
27795;DHT22;15176;50.844;4.412;2023-04-24T01:28:17;10.40;99.90
27795;DHT22;15176;50.844;4.412;2023-04-24T01:30:44;10.50;99.90
27795;DHT22;15176;50.844;4.412;2023-04-24T01:33:10;10.60;99.90
27795;DHT22;15176;50.844;4.412;2023-04-24T01:35:37;10.30;99.90
27795;DHT22;15176;50.844;4.412;2023-04-24T01:38:03;10.30;99.90
27795;DHT22;15176;50.844;4.412;2023-04-24T01:40:29;10.30;99.90
27795;DHT22;15176;50.844;4.412;2023-04-24T01:42:55;10.40;99.90
27795;DHT22;15176;50.844;4.412;2023-04-24T01:45:21;10.30;99.90
27795;DHT22;15176;50.844;4.412;2023-04-24T01:47:47;10.10;99.90
27795;DHT22;15176;50.844;4.412;2023-04-24T01:50:14;10.00;99.90
27795;DHT22;15176;50.844;4.412;2023-04-24T01:52:40;10.30;99.90
27795;DHT22;15176;50.844;4.412;2023-04-24T01:55:06;10.50;99.90
27795;DHT22;15176;50.844;4.412;2023-04-24T01:57:33;10.40;99.90
27795;DHT22;15176;50.844;4.412;2023-04-24T01:59:59;10.30;99.90
27795;DHT22;15176;50.844;4.412;2023-04-24T02:02:25;10.30;99.90
27795;DHT22;15176;50.844;4.412;2023-04-24T02:04:53;10.10;99.90
27795;DHT22;15176;50.844;4.412;2023-04-24T02:07:19;10.00;99.90
27795;DHT22;15176;50.844;4.412;2023-04-24T02:09:45;9.90;99.90
27795;DHT22;15176;50.844;4.412;2023-04-24T02:12:11;9.80;99.90
27795;DHT22;15176;50.844;4.412;2023-04-24T02:14:38;9.80;99.90
27795;DHT22;15176;50.844;4.412;2023-04-24T02:17:03;9.90;99.90
27795;DHT22;15176;50.844;4.412;2023-04-24T02:19:30;9.80;99.90
27795;DHT22;15176;50.844;4.412;2023-04-24T02:21:56;9.90;99.90
27795;DHT22;15176;50.844;4.412;2023-04-24T02:24:22;9.60;99.90
27795;DHT22;15176;50.844;4.412;2023-04-24T02:26:47;9.80;99.90
27795;DHT22;15176;50.844;4.412;2023-04-24T02:29:13;9.90;99.90
27795;DHT22;15176;50.844;4.412;2023-04-24T02:31:39;9.70;99.90
27795;DHT22;15176;50.844;4.412;2023-04-24T02:34:05;9.70;99.90
27795;DHT22;15176;50.844;4.412;2023-04-24T02:36:31;9.80;99.90
27795;DHT22;15176;50.844;4.412;2023-04-24T02:38:57;9.80;99.90
27795;DHT22;15176;50.844;4.412;2023-04-24T02:41:23;9.80;99.90
27795;DHT22;15176;50.844;4.412;2023-04-24T02:43:48;9.90;99.90
27795;DHT22;15176;50.844;4.412;2023-04-24T02:46:14;10.10;99.90
27795;DHT22;15176;50.844;4.412;2023-04-24T02:48:40;10.00;99.90
27795;DHT22;15176;50.844;4.412;2023-04-24T02:51:05;10.20;99.90
27795;DHT22;15176;50.844;4.412;2023-04-24T02:53:32;10.20;99.90
27795;DHT22;15176;50.844;4.412;2023-04-24T02:55:57;9.90;99.90
27795;DHT22;15176;50.844;4.412;2023-04-24T02:58:23;10.00;99.90
27795;DHT22;15176;50.844;4.412;2023-04-24T03:00:53;10.00;99.90
27795;DHT22;15176;50.844;4.412;2023-04-24T03:03:20;10.20;99.90
27795;DHT22;15176;50.844;4.412;2023-04-24T03:05:45;10.00;99.90
27795;DHT22;15176;50.844;4.412;2023-04-24T03:08:11;10.00;99.90
27795;DHT22;15176;50.844;4.412;2023-04-24T03:10:37;9.70;99.90
27795;DHT22;15176;50.844;4.412;2023-04-24T03:13:02;9.80;99.90
27795;DHT22;15176;50.844;4.412;2023-04-24T03:15:28;9.80;99.90
27795;DHT22;15176;50.844;4.412;2023-04-24T03:17:54;9.80;99.90
27795;DHT22;15176;50.844;4.412;2023-04-24T03:20:21;10.00;99.90
27795;DHT22;15176;50.844;4.412;2023-04-24T03:22:48;9.90;99.90
27795;DHT22;15176;50.844;4.412;2023-04-24T03:25:14;9.90;99.90
27795;DHT22;15176;50.844;4.412;2023-04-24T03:27:39;9.80;99.90
27795;DHT22;15176;50.844;4.412;2023-04-24T03:30:07;9.90;99.90
27795;DHT22;15176;50.844;4.412;2023-04-24T03:32:34;9.90;99.90
27795;DHT22;15176;50.844;4.412;2023-04-24T03:34:59;10.00;99.90
27795;DHT22;15176;50.844;4.412;2023-04-24T03:37:25;10.10;99.90
27795;DHT22;15176;50.844;4.412;2023-04-24T03:39:52;10.00;99.90
27795;DHT22;15176;50.844;4.412;2023-04-24T03:42:17;10.10;99.90
27795;DHT22;15176;50.844;4.412;2023-04-24T03:44:43;10.10;99.90
27795;DHT22;15176;50.844;4.412;2023-04-24T03:47:18;10.00;99.90
27795;DHT22;15176;50.844;4.412;2023-04-24T03:49:43;9.90;99.90
27795;DHT22;15176;50.844;4.412;2023-04-24T03:52:09;9.70;99.90
27795;DHT22;15176;50.844;4.412;2023-04-24T03:54:35;9.70;99.90
27795;DHT22;15176;50.844;4.412;2023-04-24T03:57:03;10.00;99.90
27795;DHT22;15176;50.844;4.412;2023-04-24T03:59:30;9.90;99.90
27795;DHT22;15176;50.844;4.412;2023-04-24T04:01:56;9.80;99.90
27795;DHT22;15176;50.844;4.412;2023-04-24T04:04:21;9.90;99.90
27795;DHT22;15176;50.844;4.412;2023-04-24T04:06:47;10.00;99.90
27795;DHT22;15176;50.844;4.412;2023-04-24T04:09:13;10.00;99.90
27795;DHT22;15176;50.844;4.412;2023-04-24T04:11:39;10.20;99.90
27795;DHT22;15176;50.844;4.412;2023-04-24T04:14:05;10.20;99.90
27795;DHT22;15176;50.844;4.412;2023-04-24T04:16:31;10.30;99.90
27795;DHT22;15176;50.844;4.412;2023-04-24T04:18:56;10.20;99.90
27795;DHT22;15176;50.844;4.412;2023-04-24T04:21:22;10.20;99.90
27795;DHT22;15176;50.844;4.412;2023-04-24T04:23:48;10.10;99.90
27795;DHT22;15176;50.844;4.412;2023-04-24T04:26:14;10.00;99.90
27795;DHT22;15176;50.844;4.412;2023-04-24T04:28:40;10.10;99.90
27795;DHT22;15176;50.844;4.412;2023-04-24T04:31:06;10.30;99.90
27795;DHT22;15176;50.844;4.412;2023-04-24T04:33:33;10.30;99.90
27795;DHT22;15176;50.844;4.412;2023-04-24T04:35:59;10.40;99.90
27795;DHT22;15176;50.844;4.412;2023-04-24T04:38:25;10.50;99.90
27795;DHT22;15176;50.844;4.412;2023-04-24T04:40:55;10.60;99.90
27795;DHT22;15176;50.844;4.412;2023-04-24T04:43:23;10.60;99.90
27795;DHT22;15176;50.844;4.412;2023-04-24T04:45:50;10.70;99.90
27795;DHT22;15176;50.844;4.412;2023-04-24T04:48:16;10.70;99.90
27795;DHT22;15176;50.844;4.412;2023-04-24T04:50:43;10.60;99.90
27795;DHT22;15176;50.844;4.412;2023-04-24T04:53:08;10.50;99.90
27795;DHT22;15176;50.844;4.412;2023-04-24T04:55:34;10.40;99.90
27795;DHT22;15176;50.844;4.412;2023-04-24T04:58:00;10.30;99.90
27795;DHT22;15176;50.844;4.412;2023-04-24T05:00:26;10.20;99.90
27795;DHT22;15176;50.844;4.412;2023-04-24T05:02:52;10.10;99.90
27795;DHT22;15176;50.844;4.412;2023-04-24T05:05:18;10.30;99.90
27795;DHT22;15176;50.844;4.412;2023-04-24T05:07:44;10.60;99.90
27795;DHT22;15176;50.844;4.412;2023-04-24T05:10:11;10.60;99.90
27795;DHT22;15176;50.844;4.412;2023-04-24T05:12:37;10.50;99.90
27795;DHT22;15176;50.844;4.412;2023-04-24T05:15:03;10.30;99.90
27795;DHT22;15176;50.844;4.412;2023-04-24T05:17:29;10.40;99.90
27795;DHT22;15176;50.844;4.412;2023-04-24T05:19:54;10.40;99.90
27795;DHT22;15176;50.844;4.412;2023-04-24T05:22:20;10.30;99.90
27795;DHT22;15176;50.844;4.412;2023-04-24T05:24:46;10.20;99.90
27795;DHT22;15176;50.844;4.412;2023-04-24T05:27:13;10.40;99.90
27795;DHT22;15176;50.844;4.412;2023-04-24T05:29:38;10.50;99.90
27795;DHT22;15176;50.844;4.412;2023-04-24T05:32:05;10.30;99.90
27795;DHT22;15176;50.844;4.412;2023-04-24T05:34:32;10.20;99.90
27795;DHT22;15176;50.844;4.412;2023-04-24T05:36:58;10.30;99.90
27795;DHT22;15176;50.844;4.412;2023-04-24T05:39:24;10.40;99.90
27795;DHT22;15176;50.844;4.412;2023-04-24T05:41:50;10.50;99.90
27795;DHT22;15176;50.844;4.412;2023-04-24T05:44:16;10.50;99.90
27795;DHT22;15176;50.844;4.412;2023-04-24T05:46:42;10.40;99.90
27795;DHT22;15176;50.844;4.412;2023-04-24T05:49:08;10.30;99.90
27795;DHT22;15176;50.844;4.412;2023-04-24T05:51:33;10.30;99.90
27795;DHT22;15176;50.844;4.412;2023-04-24T05:54:00;10.10;99.90
27795;DHT22;15176;50.844;4.412;2023-04-24T05:56:28;10.10;99.90
27795;DHT22;15176;50.844;4.412;2023-04-24T05:58:54;10.00;99.90
27795;DHT22;15176;50.844;4.412;2023-04-24T06:01:20;10.00;99.90
27795;DHT22;15176;50.844;4.412;2023-04-24T06:03:48;10.00;99.90
27795;DHT22;15176;50.844;4.412;2023-04-24T06:06:14;9.90;99.90
27795;DHT22;15176;50.844;4.412;2023-04-24T06:08:42;9.90;99.90
27795;DHT22;15176;50.844;4.412;2023-04-24T06:11:09;10.00;99.90
27795;DHT22;15176;50.844;4.412;2023-04-24T06:13:35;10.10;99.90
27795;DHT22;15176;50.844;4.412;2023-04-24T06:16:01;10.20;99.90
27795;DHT22;15176;50.844;4.412;2023-04-24T06:18:27;10.10;99.90
27795;DHT22;15176;50.844;4.412;2023-04-24T06:20:52;10.00;99.90
27795;DHT22;15176;50.844;4.412;2023-04-24T06:23:18;10.20;99.90
27795;DHT22;15176;50.844;4.412;2023-04-24T06:25:44;10.10;99.90
27795;DHT22;15176;50.844;4.412;2023-04-24T06:28:09;9.90;99.90
27795;DHT22;15176;50.844;4.412;2023-04-24T06:30:35;10.00;99.90
27795;DHT22;15176;50.844;4.412;2023-04-24T06:33:03;10.00;99.90
27795;DHT22;15176;50.844;4.412;2023-04-24T06:35:29;9.90;99.90
27795;DHT22;15176;50.844;4.412;2023-04-24T06:37:55;9.90;99.90
27795;DHT22;15176;50.844;4.412;2023-04-24T06:40:22;10.00;99.90
27795;DHT22;15176;50.844;4.412;2023-04-24T06:42:47;10.00;99.90
27795;DHT22;15176;50.844;4.412;2023-04-24T06:45:13;10.00;99.90
27795;DHT22;15176;50.844;4.412;2023-04-24T06:47:39;10.00;99.90
27795;DHT22;15176;50.844;4.412;2023-04-24T06:50:05;10.10;99.90
27795;DHT22;15176;50.844;4.412;2023-04-24T06:52:31;10.20;99.90
27795;DHT22;15176;50.844;4.412;2023-04-24T06:55:03;10.10;99.90
27795;DHT22;15176;50.844;4.412;2023-04-24T06:57:29;10.30;99.90
27795;DHT22;15176;50.844;4.412;2023-04-24T06:59:57;10.30;99.90
27795;DHT22;15176;50.844;4.412;2023-04-24T07:02:26;10.40;99.90
27795;DHT22;15176;50.844;4.412;2023-04-24T07:04:52;10.50;99.90
27795;DHT22;15176;50.844;4.412;2023-04-24T07:07:18;10.50;99.90
27795;DHT22;15176;50.844;4.412;2023-04-24T07:09:44;10.40;99.90
27795;DHT22;15176;50.844;4.412;2023-04-24T07:12:11;10.30;99.90
27795;DHT22;15176;50.844;4.412;2023-04-24T07:14:37;10.20;99.90
27795;DHT22;15176;50.844;4.412;2023-04-24T07:17:04;10.30;99.90
27795;DHT22;15176;50.844;4.412;2023-04-24T07:19:30;10.30;99.90
27795;DHT22;15176;50.844;4.412;2023-04-24T07:21:56;10.30;99.90
27795;DHT22;15176;50.844;4.412;2023-04-24T07:24:24;10.60;99.90
27795;DHT22;15176;50.844;4.412;2023-04-24T07:26:51;10.80;99.90
27795;DHT22;15176;50.844;4.412;2023-04-24T07:29:17;10.90;99.90
27795;DHT22;15176;50.844;4.412;2023-04-24T07:31:43;10.90;99.90
27795;DHT22;15176;50.844;4.412;2023-04-24T07:34:09;11.10;99.90
27795;DHT22;15176;50.844;4.412;2023-04-24T07:36:35;11.10;99.90
27795;DHT22;15176;50.844;4.412;2023-04-24T07:39:04;11.00;99.90
27795;DHT22;15176;50.844;4.412;2023-04-24T07:41:30;11.00;99.90
27795;DHT22;15176;50.844;4.412;2023-04-24T07:43:56;11.00;99.90
27795;DHT22;15176;50.844;4.412;2023-04-24T07:46:21;11.20;99.90
27795;DHT22;15176;50.844;4.412;2023-04-24T07:48:50;11.40;99.90
27795;DHT22;15176;50.844;4.412;2023-04-24T07:51:16;11.40;99.90
27795;DHT22;15176;50.844;4.412;2023-04-24T07:53:42;11.40;99.90
27795;DHT22;15176;50.844;4.412;2023-04-24T07:56:08;11.30;99.90
27795;DHT22;15176;50.844;4.412;2023-04-24T07:58:34;11.20;99.90
27795;DHT22;15176;50.844;4.412;2023-04-24T08:01:01;11.00;99.90
27795;DHT22;15176;50.844;4.412;2023-04-24T08:03:27;10.90;99.90
27795;DHT22;15176;50.844;4.412;2023-04-24T08:05:52;11.10;99.90
27795;DHT22;15176;50.844;4.412;2023-04-24T08:08:21;11.50;99.90
27795;DHT22;15176;50.844;4.412;2023-04-24T08:10:47;11.70;99.90
27795;DHT22;15176;50.844;4.412;2023-04-24T08:13:12;11.90;99.90
27795;DHT22;15176;50.844;4.412;2023-04-24T08:15:38;11.80;99.90
27795;DHT22;15176;50.844;4.412;2023-04-24T08:18:04;11.70;99.90
27795;DHT22;15176;50.844;4.412;2023-04-24T08:20:30;11.60;99.90
27795;DHT22;15176;50.844;4.412;2023-04-24T08:22:56;11.40;99.90
27795;DHT22;15176;50.844;4.412;2023-04-24T08:25:22;11.30;99.90
27795;DHT22;15176;50.844;4.412;2023-04-24T08:27:50;11.50;99.90
27795;DHT22;15176;50.844;4.412;2023-04-24T08:30:16;11.60;99.90
27795;DHT22;15176;50.844;4.412;2023-04-24T08:32:42;11.70;99.90
27795;DHT22;15176;50.844;4.412;2023-04-24T08:35:08;11.60;99.90
27795;DHT22;15176;50.844;4.412;2023-04-24T08:37:37;11.40;99.90
27795;DHT22;15176;50.844;4.412;2023-04-24T08:40:15;11.70;99.90
27795;DHT22;15176;50.844;4.412;2023-04-24T08:42:44;11.60;99.90
27795;DHT22;15176;50.844;4.412;2023-04-24T08:45:13;11.50;99.90
27795;DHT22;15176;50.844;4.412;2023-04-24T08:47:40;11.50;99.90
27795;DHT22;15176;50.844;4.412;2023-04-24T08:50:07;11.70;99.90
27795;DHT22;15176;50.844;4.412;2023-04-24T08:52:34;12.30;99.90
27795;DHT22;15176;50.844;4.412;2023-04-24T08:55:00;12.90;99.90
27795;DHT22;15176;50.844;4.412;2023-04-24T08:57:27;13.40;99.90
27795;DHT22;15176;50.844;4.412;2023-04-24T08:59:54;13.60;99.90
27795;DHT22;15176;50.844;4.412;2023-04-24T09:02:21;14.10;99.90
27795;DHT22;15176;50.844;4.412;2023-04-24T09:04:47;14.40;99.90
27795;DHT22;15176;50.844;4.412;2023-04-24T09:07:15;14.50;99.90
27795;DHT22;15176;50.844;4.412;2023-04-24T09:09:42;14.90;99.90
27795;DHT22;15176;50.844;4.412;2023-04-24T09:12:09;15.40;99.90
27795;DHT22;15176;50.844;4.412;2023-04-24T09:14:36;16.10;99.90
27795;DHT22;15176;50.844;4.412;2023-04-24T09:17:06;15.80;99.90
27795;DHT22;15176;50.844;4.412;2023-04-24T09:19:34;15.60;99.90
27795;DHT22;15176;50.844;4.412;2023-04-24T09:22:06;15.50;99.90
27795;DHT22;15176;50.844;4.412;2023-04-24T09:24:33;15.50;99.90
27795;DHT22;15176;50.844;4.412;2023-04-24T09:27:01;15.40;99.90
27795;DHT22;15176;50.844;4.412;2023-04-24T09:29:27;15.10;99.90
27795;DHT22;15176;50.844;4.412;2023-04-24T09:31:53;14.80;99.90
27795;DHT22;15176;50.844;4.412;2023-04-24T09:34:23;14.90;99.90
27795;DHT22;15176;50.844;4.412;2023-04-24T09:36:49;14.60;99.90
27795;DHT22;15176;50.844;4.412;2023-04-24T09:39:16;14.60;99.90
27795;DHT22;15176;50.844;4.412;2023-04-24T09:41:49;14.40;99.90
27795;DHT22;15176;50.844;4.412;2023-04-24T09:44:20;14.40;99.90
27795;DHT22;15176;50.844;4.412;2023-04-24T09:46:56;14.10;99.90
27795;DHT22;15176;50.844;4.412;2023-04-24T09:49:24;13.60;99.90
27795;DHT22;15176;50.844;4.412;2023-04-24T09:51:50;13.80;99.90
27795;DHT22;15176;50.844;4.412;2023-04-24T09:54:20;14.20;99.90
27795;DHT22;15176;50.844;4.412;2023-04-24T09:56:50;14.20;99.90
27795;DHT22;15176;50.844;4.412;2023-04-24T09:59:19;14.00;99.90
27795;DHT22;15176;50.844;4.412;2023-04-24T10:01:46;14.00;99.90
27795;DHT22;15176;50.844;4.412;2023-04-24T10:04:20;13.70;99.90
27795;DHT22;15176;50.844;4.412;2023-04-24T10:06:47;13.60;99.90
27795;DHT22;15176;50.844;4.412;2023-04-24T10:09:15;13.60;99.90
27795;DHT22;15176;50.844;4.412;2023-04-24T10:11:43;14.00;99.90
27795;DHT22;15176;50.844;4.412;2023-04-24T10:14:17;13.90;99.90
27795;DHT22;15176;50.844;4.412;2023-04-24T10:16:43;13.70;99.90
27795;DHT22;15176;50.844;4.412;2023-04-24T10:19:10;13.70;99.90
27795;DHT22;15176;50.844;4.412;2023-04-24T10:21:40;13.80;99.90
27795;DHT22;15176;50.844;4.412;2023-04-24T10:24:13;14.10;99.90
27795;DHT22;15176;50.844;4.412;2023-04-24T10:26:41;14.30;99.90
27795;DHT22;15176;50.844;4.412;2023-04-24T10:29:06;14.10;99.90
27795;DHT22;15176;50.844;4.412;2023-04-24T10:31:38;14.10;99.90
27795;DHT22;15176;50.844;4.412;2023-04-24T10:34:08;14.30;99.90
27795;DHT22;15176;50.844;4.412;2023-04-24T10:36:38;14.10;99.90
27795;DHT22;15176;50.844;4.412;2023-04-24T10:39:08;13.80;99.90
27795;DHT22;15176;50.844;4.412;2023-04-24T10:41:37;13.70;99.90
27795;DHT22;15176;50.844;4.412;2023-04-24T10:44:11;13.70;99.90
27795;DHT22;15176;50.844;4.412;2023-04-24T10:46:38;13.60;99.90
27795;DHT22;15176;50.844;4.412;2023-04-24T10:49:07;13.70;99.90
27795;DHT22;15176;50.844;4.412;2023-04-24T10:51:48;14.20;99.90
27795;DHT22;15176;50.844;4.412;2023-04-24T10:57:28;14.30;99.90
27795;DHT22;15176;50.844;4.412;2023-04-24T11:02:41;13.90;99.90
27795;DHT22;15176;50.844;4.412;2023-04-24T11:05:15;13.80;99.90
27795;DHT22;15176;50.844;4.412;2023-04-24T11:08:44;13.70;99.90
27795;DHT22;15176;50.844;4.412;2023-04-24T11:18:51;13.50;99.90
27795;DHT22;15176;50.844;4.412;2023-04-24T11:21:20;13.50;99.90
27795;DHT22;15176;50.844;4.412;2023-04-24T11:23:47;13.40;99.90
27795;DHT22;15176;50.844;4.412;2023-04-24T11:26:18;14.00;99.90
27795;DHT22;15176;50.844;4.412;2023-04-24T11:28:48;14.40;99.90
27795;DHT22;15176;50.844;4.412;2023-04-24T11:31:37;14.50;99.90
27795;DHT22;15176;50.844;4.412;2023-04-24T11:34:11;14.40;99.90
27795;DHT22;15176;50.844;4.412;2023-04-24T11:36:37;14.30;99.90
27795;DHT22;15176;50.844;4.412;2023-04-24T11:39:03;14.30;99.90
27795;DHT22;15176;50.844;4.412;2023-04-24T11:41:29;13.90;99.90
27795;DHT22;15176;50.844;4.412;2023-04-24T11:43:56;13.90;99.90
27795;DHT22;15176;50.844;4.412;2023-04-24T11:46:22;13.90;99.90
27795;DHT22;15176;50.844;4.412;2023-04-24T11:48:48;14.20;99.90
27795;DHT22;15176;50.844;4.412;2023-04-24T11:51:14;13.90;99.90
27795;DHT22;15176;50.844;4.412;2023-04-24T11:53:40;14.10;99.90
27795;DHT22;15176;50.844;4.412;2023-04-24T11:56:06;13.80;99.90
27795;DHT22;15176;50.844;4.412;2023-04-24T11:58:40;13.90;99.90
27795;DHT22;15176;50.844;4.412;2023-04-24T12:01:06;14.20;99.90
27795;DHT22;15176;50.844;4.412;2023-04-24T12:03:32;14.20;99.90
27795;DHT22;15176;50.844;4.412;2023-04-24T12:06:08;14.10;99.90
27795;DHT22;15176;50.844;4.412;2023-04-24T12:08:34;14.50;99.90
27795;DHT22;15176;50.844;4.412;2023-04-24T12:11:02;15.00;99.90
27795;DHT22;15176;50.844;4.412;2023-04-24T12:13:28;15.10;99.90
27795;DHT22;15176;50.844;4.412;2023-04-24T12:15:54;15.00;99.90
27795;DHT22;15176;50.844;4.412;2023-04-24T12:18:24;15.10;99.90
27795;DHT22;15176;50.844;4.412;2023-04-24T12:20:51;15.50;99.90
27795;DHT22;15176;50.844;4.412;2023-04-24T12:23:42;15.40;99.90
27795;DHT22;15176;50.844;4.412;2023-04-24T12:26:07;15.10;99.90
27795;DHT22;15176;50.844;4.412;2023-04-24T12:28:37;15.50;99.90
27795;DHT22;15176;50.844;4.412;2023-04-24T12:31:03;15.60;99.90
27795;DHT22;15176;50.844;4.412;2023-04-24T12:33:33;16.10;99.90
27795;DHT22;15176;50.844;4.412;2023-04-24T12:35:59;15.90;99.90
27795;DHT22;15176;50.844;4.412;2023-04-24T12:38:27;15.80;99.90
27795;DHT22;15176;50.844;4.412;2023-04-24T12:43:28;15.80;99.90
27795;DHT22;15176;50.844;4.412;2023-04-24T12:45:53;15.80;99.90
27795;DHT22;15176;50.844;4.412;2023-04-24T12:48:19;15.90;99.90
27795;DHT22;15176;50.844;4.412;2023-04-24T12:50:46;16.00;99.90
27795;DHT22;15176;50.844;4.412;2023-04-24T12:53:12;16.10;99.90
27795;DHT22;15176;50.844;4.412;2023-04-24T12:55:39;16.50;99.90
27795;DHT22;15176;50.844;4.412;2023-04-24T12:58:05;16.70;99.90
27795;DHT22;15176;50.844;4.412;2023-04-24T13:00:31;16.40;99.40
27795;DHT22;15176;50.844;4.412;2023-04-24T13:02:57;16.90;99.90
27795;DHT22;15176;50.844;4.412;2023-04-24T13:05:23;17.10;99.80
27795;DHT22;15176;50.844;4.412;2023-04-24T13:07:51;17.30;98.30
27795;DHT22;15176;50.844;4.412;2023-04-24T13:10:17;17.00;98.50
27795;DHT22;15176;50.844;4.412;2023-04-24T13:12:44;17.10;97.90
27795;DHT22;15176;50.844;4.412;2023-04-24T13:15:11;16.80;99.40
27795;DHT22;15176;50.844;4.412;2023-04-24T13:17:37;16.80;97.10
27795;DHT22;15176;50.844;4.412;2023-04-24T13:20:04;17.10;99.90
27795;DHT22;15176;50.844;4.412;2023-04-24T13:22:29;17.50;99.80
27795;DHT22;15176;50.844;4.412;2023-04-24T13:24:57;17.40;96.40
27795;DHT22;15176;50.844;4.412;2023-04-24T13:27:22;17.00;98.00
27795;DHT22;15176;50.844;4.412;2023-04-24T13:29:48;16.80;97.40
27795;DHT22;15176;50.844;4.412;2023-04-24T13:32:17;16.30;97.80
27795;DHT22;15176;50.844;4.412;2023-04-24T13:34:50;16.00;98.70
27795;DHT22;15176;50.844;4.412;2023-04-24T13:37:16;15.90;99.50
27795;DHT22;15176;50.844;4.412;2023-04-24T13:39:41;15.90;99.00
27795;DHT22;15176;50.844;4.412;2023-04-24T13:42:08;16.00;99.00
27795;DHT22;15176;50.844;4.412;2023-04-24T13:44:34;16.40;99.20
27795;DHT22;15176;50.844;4.412;2023-04-24T13:47:00;16.40;99.60
27795;DHT22;15176;50.844;4.412;2023-04-24T13:49:27;16.10;98.90
27795;DHT22;15176;50.844;4.412;2023-04-24T13:51:54;16.20;99.30
27795;DHT22;15176;50.844;4.412;2023-04-24T13:54:21;15.90;99.90
27795;DHT22;15176;50.844;4.412;2023-04-24T13:56:48;15.90;99.40
27795;DHT22;15176;50.844;4.412;2023-04-24T13:59:14;16.20;98.80
27795;DHT22;15176;50.844;4.412;2023-04-24T14:01:40;15.80;99.00
27795;DHT22;15176;50.844;4.412;2023-04-24T14:04:06;15.80;99.00
27795;DHT22;15176;50.844;4.412;2023-04-24T14:06:32;16.10;99.30
27795;DHT22;15176;50.844;4.412;2023-04-24T14:08:58;16.40;97.80
27795;DHT22;15176;50.844;4.412;2023-04-24T14:11:24;16.70;95.60
27795;DHT22;15176;50.844;4.412;2023-04-24T14:13:51;16.50;96.40
27795;DHT22;15176;50.844;4.412;2023-04-24T14:16:17;16.00;95.50
27795;DHT22;15176;50.844;4.412;2023-04-24T14:18:42;15.90;96.40
27795;DHT22;15176;50.844;4.412;2023-04-24T14:21:08;16.00;96.10
27795;DHT22;15176;50.844;4.412;2023-04-24T14:23:35;15.70;96.20
27795;DHT22;15176;50.844;4.412;2023-04-24T14:26:00;15.70;97.10
27795;DHT22;15176;50.844;4.412;2023-04-24T14:28:26;16.00;95.90
27795;DHT22;15176;50.844;4.412;2023-04-24T14:30:53;15.90;97.00
27795;DHT22;15176;50.844;4.412;2023-04-24T14:33:22;15.60;95.10
27795;DHT22;15176;50.844;4.412;2023-04-24T14:35:55;15.50;95.90
27795;DHT22;15176;50.844;4.412;2023-04-24T14:38:22;15.50;95.30
27795;DHT22;15176;50.844;4.412;2023-04-24T14:40:48;15.80;95.80
27795;DHT22;15176;50.844;4.412;2023-04-24T14:43:14;15.60;97.30
27795;DHT22;15176;50.844;4.412;2023-04-24T14:45:40;15.40;98.50
27795;DHT22;15176;50.844;4.412;2023-04-24T14:48:07;15.20;98.30
27795;DHT22;15176;50.844;4.412;2023-04-24T14:50:33;15.10;99.80
27795;DHT22;15176;50.844;4.412;2023-04-24T14:52:59;15.30;99.80
27795;DHT22;15176;50.844;4.412;2023-04-24T14:55:27;15.30;98.50
27795;DHT22;15176;50.844;4.412;2023-04-24T14:57:54;14.90;99.90
27795;DHT22;15176;50.844;4.412;2023-04-24T15:00:20;14.90;99.60
27795;DHT22;15176;50.844;4.412;2023-04-24T15:02:48;15.20;99.70
27795;DHT22;15176;50.844;4.412;2023-04-24T15:05:15;15.30;99.20
27795;DHT22;15176;50.844;4.412;2023-04-24T15:07:41;14.90;99.80
27795;DHT22;15176;50.844;4.412;2023-04-24T15:10:10;14.90;99.90
27795;DHT22;15176;50.844;4.412;2023-04-24T15:12:36;15.20;99.20
27795;DHT22;15176;50.844;4.412;2023-04-24T15:15:02;15.10;99.00
27795;DHT22;15176;50.844;4.412;2023-04-24T15:17:28;15.20;98.60
27795;DHT22;15176;50.844;4.412;2023-04-24T15:19:53;15.30;98.30
27795;DHT22;15176;50.844;4.412;2023-04-24T15:22:19;15.20;98.10
27795;DHT22;15176;50.844;4.412;2023-04-24T15:24:45;15.30;98.50
27795;DHT22;15176;50.844;4.412;2023-04-24T15:27:11;15.20;98.90
27795;DHT22;15176;50.844;4.412;2023-04-24T15:29:37;15.20;96.50
27795;DHT22;15176;50.844;4.412;2023-04-24T15:32:03;14.70;98.40
27795;DHT22;15176;50.844;4.412;2023-04-24T15:34:29;14.70;99.50
27795;DHT22;15176;50.844;4.412;2023-04-24T15:36:54;15.00;99.20
27795;DHT22;15176;50.844;4.412;2023-04-24T15:39:24;15.40;98.00
27795;DHT22;15176;50.844;4.412;2023-04-24T15:41:53;15.20;97.50
27795;DHT22;15176;50.844;4.412;2023-04-24T15:44:21;15.30;98.50
27795;DHT22;15176;50.844;4.412;2023-04-24T15:46:47;15.20;98.00